createdAt,value
2019-01-15T00:00:53.215Z,77.43
2019-01-15T00:03:22.965Z,77.65
2019-01-15T00:05:52.743Z,77.98
2019-01-15T00:08:22.631Z,78.09
2019-01-15T00:10:52.392Z,78.65
2019-01-15T00:13:22.351Z,78.65
2019-01-15T00:15:52.163Z,78.46
2019-01-15T00:18:21.930Z,78.46
2019-01-15T00:20:51.610Z,78.29
2019-01-15T00:23:21.431Z,78.95
2019-01-15T00:25:51.259Z,79.04
2019-01-15T00:28:21.057Z,79.50
2019-01-15T00:30:50.886Z,80.07
2019-01-15T00:33:20.653Z,79.91
2019-01-15T00:35:50.420Z,79.91
2019-01-15T00:38:20.270Z,79.83
2019-01-15T00:40:50.223Z,79.79
2019-01-15T00:43:20.058Z,79.17
2019-01-15T00:45:49.874Z,79.17
2019-01-15T00:48:20.547Z,79.56
2019-01-15T00:50:50.701Z,79.32
2019-01-15T00:53:20.592Z,79.66
2019-01-15T00:55:50.401Z,79.69
2019-01-15T00:58:20.347Z,79.69
2019-01-15T01:00:50.148Z,79.30
2019-01-15T01:03:20.102Z,78.97
2019-01-15T01:05:50.020Z,78.72
2019-01-15T01:08:19.899Z,78.72
2019-01-15T01:10:49.667Z,78.43
2019-01-15T01:13:19.849Z,78.37
2019-01-15T01:15:49.640Z,77.97
2019-01-15T01:18:19.423Z,77.85
2019-01-15T01:20:49.235Z,77.85
2019-01-15T01:23:19.125Z,77.92
2019-01-15T01:25:48.928Z,77.66
2019-01-15T01:28:18.715Z,77.28
2019-01-15T01:30:48.608Z,76.17
2019-01-15T01:33:18.393Z,75.31
2019-01-15T01:35:48.151Z,74.96
2019-01-15T01:38:18.655Z,74.78
2019-01-15T01:40:48.446Z,74.78
2019-01-15T01:43:18.271Z,75.47
2019-01-15T01:45:48.099Z,75.63
2019-01-15T01:48:17.809Z,75.58
2019-01-15T01:50:47.495Z,75.27
2019-01-15T01:53:17.217Z,74.89
2019-01-15T01:55:47.059Z,75.00
2019-01-15T01:58:21.068Z,74.96
2019-01-15T02:00:50.955Z,75.09
2019-01-15T02:03:20.718Z,74.89
2019-01-15T02:05:50.649Z,75.92
2019-01-15T02:08:20.447Z,75.92
2019-01-15T02:10:50.376Z,76.03
2019-01-15T02:13:20.151Z,76.32
2019-01-15T02:15:49.976Z,76.25
2019-01-15T02:18:19.743Z,75.64
2019-01-15T02:20:49.523Z,75.02
2019-01-15T02:23:19.346Z,74.90
2019-01-15T02:25:49.139Z,75.00
2019-01-15T02:28:18.932Z,74.31
2019-01-15T02:30:48.771Z,74.31
2019-01-15T02:33:18.542Z,73.80
2019-01-15T02:35:48.276Z,73.23
2019-01-15T02:38:18.107Z,72.66
2019-01-15T02:40:47.872Z,72.12
2019-01-15T02:43:18.191Z,71.94
2019-01-15T02:45:48.023Z,71.71
2019-01-15T02:48:17.807Z,72.66
2019-01-15T02:50:47.713Z,72.66
2019-01-15T02:53:17.549Z,72.32
2019-01-15T02:55:47.340Z,71.76
2019-01-15T02:58:17.148Z,72.41
2019-01-15T03:00:46.988Z,72.41
2019-01-15T03:03:16.779Z,72.52
2019-01-15T03:05:46.551Z,72.59
2019-01-15T03:08:16.392Z,72.60
2019-01-15T03:10:46.542Z,72.60
2019-01-15T03:13:16.350Z,72.64
2019-01-15T03:15:46.252Z,73.12
2019-01-15T03:18:16.038Z,72.71
2019-01-15T03:20:45.793Z,73.02
2019-01-15T03:23:15.648Z,72.93
2019-01-15T03:25:45.448Z,72.75
2019-01-15T03:28:15.216Z,72.98
2019-01-15T03:30:45.113Z,74.04
2019-01-15T03:33:14.938Z,73.46
2019-01-15T03:35:44.727Z,74.59
2019-01-15T03:38:14.521Z,75.93
2019-01-15T03:40:44.285Z,76.93
2019-01-15T03:43:14.108Z,77.24
2019-01-15T03:45:43.999Z,77.51
2019-01-15T03:48:13.825Z,77.77
2019-01-15T03:50:43.592Z,77.03
2019-01-15T03:53:13.435Z,78.05
2019-01-15T03:55:43.232Z,78.79
2019-01-15T03:58:13.283Z,78.65
2019-01-15T04:00:43.169Z,78.14
2019-01-15T04:03:13.018Z,77.35
2019-01-15T04:05:42.789Z,76.56
2019-01-15T04:08:12.644Z,75.66
2019-01-15T04:10:42.397Z,75.76
2019-01-15T04:13:12.187Z,75.72
2019-01-15T04:15:42.069Z,75.57
2019-01-15T04:18:11.840Z,75.34
2019-01-15T04:20:41.627Z,75.26
2019-01-15T04:23:11.821Z,75.25
2019-01-15T04:25:41.567Z,75.61
2019-01-15T04:28:11.297Z,75.96
2019-01-15T04:30:41.157Z,76.02
2019-01-15T04:33:10.964Z,76.05
2019-01-15T04:35:40.762Z,77.14
2019-01-15T04:38:10.642Z,77.46
2019-01-15T04:40:40.389Z,77.19
2019-01-15T04:43:10.171Z,77.09
2019-01-15T04:45:40.002Z,76.77
2019-01-15T04:48:10.024Z,76.78
2019-01-15T04:50:39.704Z,76.10
2019-01-15T04:53:09.511Z,76.51
2019-01-15T04:55:39.311Z,76.40
2019-01-15T04:58:09.080Z,76.77
2019-01-15T05:00:38.903Z,76.78
2019-01-15T05:03:09.375Z,76.66
2019-01-15T05:05:39.160Z,76.59
2019-01-15T05:08:08.976Z,76.50
2019-01-15T05:10:38.758Z,76.65
2019-01-15T05:13:08.571Z,76.73
2019-01-15T05:15:38.379Z,76.63
2019-01-15T05:18:08.222Z,76.29
2019-01-15T05:20:38.139Z,75.97
2019-01-15T05:23:07.947Z,76.21
2019-01-15T05:25:37.671Z,76.26
2019-01-15T05:28:07.468Z,74.99
2019-01-15T05:30:37.286Z,74.82
2019-01-15T05:33:07.087Z,75.75
2019-01-15T05:35:36.846Z,75.66
2019-01-15T05:38:06.681Z,75.59
2019-01-15T05:40:36.649Z,76.01
2019-01-15T05:43:06.421Z,75.91
2019-01-15T05:45:36.795Z,75.76
2019-01-15T05:48:08.240Z,75.99
2019-01-15T05:50:42.326Z,75.98
2019-01-15T05:53:13.699Z,75.51
2019-01-15T05:55:43.387Z,75.58
2019-01-15T05:58:13.283Z,75.69
2019-01-15T06:00:43.150Z,75.64
2019-01-15T06:03:12.945Z,75.28
2019-01-15T06:05:42.772Z,84.03
2019-01-15T06:08:12.559Z,83.03
2019-01-15T06:10:42.319Z,77.07
2019-01-15T06:13:12.136Z,72.55
2019-01-15T06:15:41.869Z,69.52
2019-01-15T06:18:11.628Z,66.88
2019-01-15T06:20:41.478Z,67.60
2019-01-15T06:23:11.246Z,69.16
2019-01-15T06:25:41.068Z,69.83
2019-01-15T06:28:10.898Z,70.73
2019-01-15T06:30:40.681Z,71.65
2019-01-15T06:33:10.430Z,71.37
2019-01-15T06:35:40.287Z,72.25
2019-01-15T06:38:10.113Z,72.65
2019-01-15T06:40:39.879Z,77.17
2019-01-15T06:43:09.699Z,71.64
2019-01-15T06:45:39.496Z,70.98
2019-01-15T06:48:09.257Z,71.40
2019-01-15T06:50:39.536Z,71.59
2019-01-15T06:53:09.628Z,71.68
2019-01-15T06:55:39.440Z,71.96
2019-01-15T06:58:09.259Z,71.65
2019-01-15T07:00:39.050Z,71.76
2019-01-15T07:03:08.838Z,71.34
2019-01-15T07:05:38.702Z,70.19
2019-01-15T07:08:08.471Z,70.31
2019-01-15T07:10:39.461Z,69.65
2019-01-15T07:13:09.351Z,68.65
2019-01-15T07:15:40.211Z,68.65
2019-01-15T07:18:10.041Z,69.41
2019-01-15T07:20:39.832Z,69.23
2019-01-15T07:23:09.630Z,69.23
2019-01-15T07:25:39.400Z,69.29
2019-01-15T07:28:09.149Z,69.78
2019-01-15T07:30:42.704Z,70.03
2019-01-15T07:33:12.511Z,70.25
2019-01-15T07:35:42.289Z,69.44
2019-01-15T07:38:12.077Z,69.85
2019-01-15T07:40:41.909Z,70.20
2019-01-15T07:43:11.700Z,69.94
2019-01-15T07:45:41.478Z,69.42
2019-01-15T07:48:11.316Z,69.50
2019-01-15T07:50:41.056Z,69.10
2019-01-15T07:53:11.462Z,68.94
2019-01-15T07:55:41.286Z,68.55
2019-01-15T07:58:11.097Z,67.95
2019-01-15T08:00:41.358Z,67.44
2019-01-15T08:03:11.214Z,66.94
2019-01-15T08:05:41.009Z,67.45
2019-01-15T08:08:10.743Z,67.71
2019-01-15T08:10:41.701Z,67.71
2019-01-15T08:13:11.758Z,66.55
2019-01-15T08:15:41.536Z,66.55
2019-01-15T08:18:11.307Z,66.39
2019-01-15T08:20:41.300Z,66.62
2019-01-15T08:23:11.249Z,65.94
2019-01-15T08:25:41.427Z,65.95
2019-01-15T08:28:11.235Z,66.59
2019-01-15T08:30:40.983Z,66.27
2019-01-15T08:33:10.633Z,66.99
2019-01-15T08:35:40.488Z,66.95
2019-01-15T08:38:10.251Z,66.92
2019-01-15T08:40:40.028Z,65.79
2019-01-15T08:43:09.910Z,66.04
2019-01-15T08:45:39.670Z,65.15
2019-01-15T08:48:11.035Z,64.16
2019-01-15T08:50:41.111Z,64.16
2019-01-15T08:53:11.666Z,62.62
2019-01-15T08:55:41.447Z,62.63
2019-01-15T08:58:11.313Z,61.38
2019-01-15T09:00:41.272Z,60.68
2019-01-15T09:03:11.055Z,60.47
2019-01-15T09:05:42.171Z,60.45
2019-01-15T09:08:12.093Z,60.12
2019-01-15T09:10:41.977Z,59.08
2019-01-15T09:13:11.780Z,58.77
2019-01-15T09:15:41.628Z,58.44
2019-01-15T09:18:11.436Z,58.42
2019-01-15T09:20:41.264Z,58.35
2019-01-15T09:23:11.052Z,58.72
2019-01-15T09:25:40.912Z,59.28
2019-01-15T09:28:10.641Z,59.79
2019-01-15T09:30:40.348Z,60.15
2019-01-15T09:33:10.115Z,60.77
2019-01-15T09:35:39.917Z,61.30
2019-01-15T09:38:09.791Z,60.82
2019-01-15T09:40:39.540Z,60.01
2019-01-15T09:43:09.370Z,59.62
2019-01-15T09:45:39.181Z,59.04
2019-01-15T09:48:09.220Z,58.61
2019-01-15T09:50:40.596Z,57.84
2019-01-15T09:53:10.361Z,57.41
2019-01-15T09:55:40.170Z,56.83
2019-01-15T09:58:10.091Z,56.25
2019-01-15T10:00:40.067Z,56.23
2019-01-15T10:03:09.852Z,55.58
2019-01-15T10:05:40.066Z,55.54
2019-01-15T10:08:09.845Z,55.49
2019-01-15T10:10:39.604Z,55.16
2019-01-15T10:13:09.447Z,54.75
2019-01-15T10:15:39.312Z,55.15
2019-01-15T10:18:09.497Z,54.99
2019-01-15T10:20:39.350Z,55.78
2019-01-15T10:23:09.109Z,56.13
2019-01-15T10:25:39.192Z,56.19
2019-01-15T10:28:09.492Z,55.40
2019-01-15T10:30:42.801Z,55.01
2019-01-15T10:33:24.851Z,54.81
2019-01-15T10:35:54.839Z,54.74
2019-01-15T10:38:26.741Z,53.17
2019-01-15T10:40:57.669Z,53.08
2019-01-15T10:43:27.930Z,52.02
2019-01-15T10:45:57.634Z,50.82
2019-01-15T10:48:27.360Z,49.77
2019-01-15T10:50:57.043Z,49.81
2019-01-15T10:53:27.393Z,49.46
2019-01-15T10:55:57.350Z,49.54
2019-01-15T10:58:27.402Z,48.31
2019-01-15T11:00:57.706Z,48.65
2019-01-15T11:03:27.384Z,49.16
2019-01-15T11:05:57.129Z,49.43
2019-01-15T11:08:26.920Z,47.88
2019-01-15T11:10:56.889Z,47.13
2019-01-15T11:13:26.802Z,47.67
2019-01-15T11:15:56.711Z,47.13
2019-01-15T11:18:26.556Z,46.90
2019-01-15T11:20:56.329Z,46.85
2019-01-15T11:23:25.980Z,46.94
2019-01-15T11:25:56.949Z,46.24
2019-01-15T11:28:26.733Z,45.90
2019-01-15T11:30:56.517Z,45.38
2019-01-15T11:33:26.814Z,44.80
2019-01-15T11:35:56.746Z,44.83
2019-01-15T11:38:27.279Z,44.15
2019-01-15T11:40:57.118Z,44.02
2019-01-15T11:43:26.886Z,43.61
2019-01-15T11:45:56.669Z,43.54
2019-01-15T11:48:26.485Z,42.66
2019-01-15T11:50:56.237Z,42.38
2019-01-15T11:53:26.035Z,42.34
2019-01-15T11:55:55.943Z,42.02
2019-01-15T11:58:25.704Z,42.58
2019-01-15T12:00:57.063Z,42.48
2019-01-15T12:03:40.772Z,42.03
2019-01-15T12:06:15.107Z,40.76
2019-01-15T12:09:03.124Z,40.77
2019-01-15T12:11:44.347Z,41.26
2019-01-15T12:14:25.017Z,40.77
2019-01-15T12:17:11.297Z,41.00
2019-01-15T12:19:42.700Z,40.08
2019-01-15T12:22:29.090Z,38.30
2019-01-15T12:25:17.041Z,39.07
2019-01-15T12:28:03.749Z,39.10
2019-01-15T12:30:44.293Z,39.07
2019-01-15T12:33:21.630Z,38.04
2019-01-15T12:35:53.017Z,37.85
2019-01-15T12:38:27.193Z,37.40
2019-01-15T12:41:14.293Z,37.30
2019-01-15T12:43:48.729Z,37.81
2019-01-15T12:46:20.131Z,37.06
2019-01-15T12:49:00.714Z,37.61
2019-01-15T12:51:48.245Z,38.35
2019-01-15T12:54:31.892Z,37.55
2019-01-15T12:57:09.109Z,42.42
2019-01-15T12:59:56.831Z,44.57
2019-01-15T13:02:46.277Z,38.50
2019-01-15T13:05:20.988Z,38.82
2019-01-15T13:08:08.613Z,38.27
2019-01-15T13:10:46.021Z,38.70
2019-01-15T13:13:23.517Z,39.16
2019-01-15T13:16:00.928Z,39.67
2019-01-15T13:18:48.462Z,40.22
2019-01-15T13:21:38.902Z,40.18
2019-01-15T13:24:10.299Z,39.75
2019-01-15T13:26:57.829Z,39.76
2019-01-15T13:29:38.051Z,39.25
2019-01-15T13:32:09.407Z,39.61
2019-01-15T13:34:40.760Z,39.56
2019-01-15T13:37:15.022Z,40.10
2019-01-15T13:39:46.426Z,40.04
2019-01-15T13:42:23.662Z,40.00
2019-01-15T13:44:58.025Z,40.43
2019-01-15T13:47:35.520Z,40.85
2019-01-15T13:50:18.226Z,40.81
2019-01-15T13:52:58.119Z,40.06
2019-01-15T13:55:29.439Z,39.04
2019-01-15T13:58:12.717Z,36.29
2019-01-15T14:00:44.040Z,38.70
2019-01-15T14:03:15.388Z,38.57
2019-01-15T14:06:03.051Z,38.67
2019-01-15T14:08:43.826Z,40.63
2019-01-15T14:11:15.206Z,41.76
2019-01-15T14:13:52.721Z,40.22
2019-01-15T14:16:39.743Z,37.95
2019-01-15T14:19:11.106Z,38.64
2019-01-15T14:21:59.532Z,38.71
2019-01-15T14:24:36.869Z,38.39
2019-01-15T14:27:14.329Z,37.73
2019-01-15T14:30:02.940Z,37.04
2019-01-15T14:32:37.513Z,37.54
2019-01-15T14:35:09.434Z,37.43
2019-01-15T14:37:50.070Z,37.67
2019-01-15T14:40:21.380Z,37.99
2019-01-15T14:43:01.986Z,38.01
2019-01-15T14:45:48.388Z,38.27
2019-01-15T14:48:19.773Z,38.20
2019-01-15T14:51:09.306Z,40.03
2019-01-15T14:53:40.579Z,41.26
2019-01-15T14:56:11.933Z,40.03
2019-01-15T14:58:49.130Z,40.09
2019-01-15T15:01:20.445Z,40.49
2019-01-15T15:03:57.653Z,40.26
2019-01-15T15:06:29.010Z,40.26
2019-01-15T15:09:09.641Z,39.99
2019-01-15T15:11:40.963Z,40.38
2019-01-15T15:14:12.412Z,40.98
2019-01-15T15:16:43.791Z,40.97
2019-01-15T15:19:15.031Z,41.34
2019-01-15T15:21:55.538Z,41.94
2019-01-15T15:24:26.846Z,42.40
2019-01-15T15:26:58.199Z,42.85
2019-01-15T15:29:29.485Z,42.63
2019-01-15T15:32:17.292Z,42.79
2019-01-15T15:35:00.773Z,42.97
2019-01-15T15:37:32.108Z,43.27
2019-01-15T15:40:12.533Z,43.38
2019-01-15T15:42:47.060Z,43.62
2019-01-15T15:45:21.446Z,42.38
2019-01-15T15:48:08.888Z,42.37
2019-01-15T15:50:40.288Z,42.32
2019-01-15T15:53:20.846Z,42.96
2019-01-15T15:55:54.986Z,43.33
2019-01-15T15:58:41.629Z,43.29
2019-01-15T16:01:21.800Z,46.22
2019-01-15T16:03:56.200Z,44.40
2019-01-15T16:06:44.090Z,43.17
2019-01-15T16:09:18.421Z,43.46
2019-01-15T16:11:50.852Z,43.73
2019-01-15T16:14:25.028Z,43.71
2019-01-15T16:17:12.871Z,43.76
2019-01-15T16:19:53.240Z,43.84
2019-01-15T16:22:29.131Z,42.95
2019-01-15T16:25:00.445Z,42.67
2019-01-15T16:27:31.765Z,43.11
2019-01-15T16:30:15.106Z,43.43
2019-01-15T16:33:01.472Z,43.87
2019-01-15T16:35:33.131Z,44.23
2019-01-15T16:38:13.575Z,44.09
2019-01-15T16:41:01.252Z,44.64
2019-01-15T16:43:32.616Z,43.84
2019-01-15T16:46:10.081Z,44.27
2019-01-15T16:48:50.422Z,44.23
2019-01-15T16:51:34.241Z,44.32
2019-01-15T16:54:08.718Z,44.62
2019-01-15T16:56:46.051Z,50.53
2019-01-15T16:59:25.942Z,49.30
2019-01-15T17:02:00.306Z,45.40
2019-01-15T17:04:46.972Z,44.93
2019-01-15T17:07:18.339Z,45.34
2019-01-15T17:09:49.699Z,46.01
2019-01-15T17:12:26.808Z,46.09
2019-01-15T17:15:00.805Z,45.75
2019-01-15T17:17:38.279Z,44.79
2019-01-15T17:20:14.012Z,44.99
2019-01-15T17:22:45.401Z,45.14
2019-01-15T17:25:19.200Z,45.61
2019-01-15T17:28:06.818Z,46.32
2019-01-15T17:30:48.140Z,46.91
2019-01-15T17:33:28.656Z,47.28
2019-01-15T17:36:16.334Z,47.50
2019-01-15T17:39:05.817Z,47.74
2019-01-15T17:41:40.239Z,47.85
2019-01-15T17:44:19.218Z,47.73
2019-01-15T17:46:59.879Z,48.77
2019-01-15T17:49:35.139Z,49.05
2019-01-15T17:52:12.634Z,49.97
2019-01-15T17:54:46.797Z,49.59
2019-01-15T17:57:18.114Z,49.07
2019-01-15T17:59:49.498Z,50.56
2019-01-15T18:02:27.355Z,50.90
2019-01-15T18:05:07.787Z,51.05
2019-01-15T18:07:42.047Z,50.97
2019-01-15T18:10:29.849Z,51.55
2019-01-15T18:13:11.761Z,51.20
2019-01-15T18:15:43.041Z,52.18
2019-01-15T18:18:17.348Z,52.33
2019-01-15T18:20:54.858Z,52.69
2019-01-15T18:23:26.391Z,53.10
2019-01-15T18:26:14.770Z,53.60
2019-01-15T18:28:46.349Z,53.55
2019-01-15T18:31:17.709Z,54.22
2019-01-15T18:33:50.691Z,54.60
2019-01-15T18:36:38.269Z,54.45
2019-01-15T18:39:38.247Z,54.89
2019-01-15T18:42:26.546Z,55.14
2019-01-15T18:45:04.261Z,55.24
2019-01-15T18:47:41.680Z,55.93
2019-01-15T18:50:13.180Z,56.06
2019-01-15T18:52:48.320Z,56.35
2019-01-15T18:55:33.820Z,56.78
2019-01-15T18:58:06.854Z,56.64
2019-01-15T19:00:40.191Z,56.93
2019-01-15T19:03:14.021Z,57.02
2019-01-15T19:05:51.380Z,57.23
2019-01-15T19:08:28.813Z,57.48
2019-01-15T19:11:15.534Z,57.42
2019-01-15T19:14:07.228Z,57.59
2019-01-15T19:16:44.784Z,57.38
2019-01-15T19:19:19.201Z,57.62
2019-01-15T19:22:08.460Z,57.71
2019-01-15T19:24:39.820Z,58.51
2019-01-15T19:27:20.339Z,58.11
2019-01-15T19:30:07.960Z,58.21
2019-01-15T19:32:56.582Z,58.32
2019-01-15T19:35:44.334Z,58.20
2019-01-15T19:38:15.683Z,58.31
2019-01-15T19:40:47.017Z,59.08
2019-01-15T19:43:18.404Z,58.87
2019-01-15T19:46:02.014Z,59.53
2019-01-15T19:48:36.293Z,59.62
2019-01-15T19:51:08.054Z,59.62
2019-01-15T19:53:55.993Z,59.53
2019-01-15T19:56:43.644Z,59.96
2019-01-15T19:59:17.710Z,60.44
2019-01-15T20:02:05.404Z,60.08
2019-01-15T20:04:45.794Z,60.08
2019-01-15T20:07:18.761Z,59.35
2019-01-15T20:10:06.611Z,59.71
2019-01-15T20:12:49.880Z,59.71
2019-01-15T20:15:41.060Z,60.66
2019-01-15T20:18:14.063Z,60.66
2019-01-15T20:20:51.664Z,61.06
2019-01-15T20:23:23.021Z,61.15
2019-01-15T20:26:07.128Z,61.15
2019-01-15T20:28:40.967Z,61.88
2019-01-15T20:31:12.307Z,61.88
2019-01-15T20:33:52.813Z,62.01
2019-01-15T20:36:27.215Z,62.02
2019-01-15T20:39:02.392Z,62.21
2019-01-15T20:41:37.964Z,62.23
2019-01-15T20:44:14.615Z,62.69
2019-01-15T20:47:03.401Z,62.47
2019-01-15T20:49:52.244Z,62.22
2019-01-15T20:52:27.398Z,62.22
2019-01-15T20:55:07.636Z,62.73
2019-01-15T20:57:41.683Z,62.53
2019-01-15T21:00:29.053Z,62.53
2019-01-15T21:03:02.669Z,62.26
2019-01-15T21:06:11.003Z,62.26
2019-01-15T21:08:57.278Z,62.94
2019-01-15T21:11:51.905Z,62.94
2019-01-15T21:14:28.878Z,63.25
2019-01-15T21:17:18.194Z,64.36
2019-01-15T21:19:55.524Z,64.06
2019-01-15T21:22:40.237Z,64.06
2019-01-15T21:25:14.385Z,64.27
2019-01-15T21:27:46.965Z,64.72
2019-01-15T21:30:38.167Z,64.66
2019-01-15T21:33:15.372Z,64.35
2019-01-15T21:35:49.153Z,64.52
2019-01-15T21:38:26.591Z,64.92
2019-01-15T21:41:00.633Z,64.92
2019-01-15T21:43:44.172Z,64.72
2019-01-15T21:46:18.401Z,65.11
2019-01-15T21:49:05.851Z,65.02
2019-01-15T21:52:03.836Z,64.93
2019-01-15T21:54:51.902Z,65.07
2019-01-15T21:57:33.033Z,65.22
2019-01-15T22:00:10.471Z,65.15
2019-01-15T22:02:58.412Z,65.33
2019-01-15T22:05:32.632Z,66.35
2019-01-15T22:08:10.833Z,66.76
2019-01-15T22:10:56.443Z,66.76
2019-01-15T22:13:33.295Z,66.65
2019-01-15T22:16:16.428Z,66.55
2019-01-15T22:19:10.508Z,66.71
2019-01-15T22:21:47.388Z,67.31
2019-01-15T22:24:38.930Z,67.29
2019-01-15T22:27:15.135Z,67.54
2019-01-15T22:29:57.334Z,67.48
2019-01-15T22:32:36.600Z,67.36
2019-01-15T22:35:16.248Z,67.27
2019-01-15T22:38:08.216Z,67.12
2019-01-15T22:40:45.678Z,67.53
2019-01-15T22:43:40.005Z,67.21
2019-01-15T22:46:26.372Z,66.94
2019-01-15T22:49:11.010Z,66.87
2019-01-15T22:52:05.818Z,67.50
2019-01-15T22:54:53.093Z,67.69
2019-01-15T22:57:28.504Z,67.69
2019-01-15T23:00:18.603Z,68.29
2019-01-15T23:03:06.659Z,68.30
2019-01-15T23:05:55.770Z,68.75
2019-01-15T23:08:27.383Z,68.82
2019-01-15T23:11:04.722Z,68.82
2019-01-15T23:13:36.119Z,68.91
2019-01-15T23:16:07.604Z,68.45
2019-01-15T23:18:50.919Z,68.45
2019-01-15T23:21:34.289Z,67.89
2019-01-15T23:24:22.287Z,67.27
2019-01-15T23:26:59.562Z,68.30
2019-01-15T23:29:47.485Z,68.79
2019-01-15T23:32:21.866Z,69.25
2019-01-15T23:34:59.310Z,69.20
2019-01-15T23:37:39.726Z,69.18
2019-01-15T23:40:17.427Z,69.57
2019-01-15T23:43:04.095Z,70.07
2019-01-15T23:45:38.482Z,70.02
2019-01-15T23:48:10.100Z,70.22
2019-01-15T23:50:47.612Z,70.62
2019-01-15T23:53:37.371Z,70.77
2019-01-15T23:56:08.765Z,70.82
2019-01-15T23:58:45.882Z,70.50
